createdAt,value
2022-10-08T00:01:26.331Z,4.00
2022-10-08T00:04:33.511Z,3.63
2022-10-08T00:07:48.190Z,3.63
2022-10-08T00:10:56.615Z,3.78
2022-10-08T00:14:05.877Z,4.13
2022-10-08T00:17:17.187Z,3.63
2022-10-08T00:20:22.783Z,4.18
2022-10-08T00:23:46.873Z,3.78
2022-10-08T00:26:56.474Z,3.97
2022-10-08T00:30:03.586Z,4.13
2022-10-08T00:33:10.147Z,4.20
2022-10-08T00:36:16.225Z,4.65
2022-10-08T00:39:26.633Z,3.80
2022-10-08T00:42:36.908Z,3.35
2022-10-08T00:45:42.655Z,3.53
2022-10-08T00:48:48.763Z,4.53
2022-10-08T00:51:56.067Z,3.83
2022-10-08T00:55:10.821Z,3.38
2022-10-08T00:58:25.590Z,3.78
2022-10-08T01:08:37.988Z,3.40
2022-10-08T01:11:50.329Z,3.70
2022-10-08T01:15:00.771Z,3.80
2022-10-08T01:18:10.798Z,3.58
2022-10-08T01:21:17.660Z,3.38
2022-10-08T01:24:50.079Z,3.90
2022-10-08T01:28:02.787Z,4.70
2022-10-08T01:31:11.238Z,3.40
2022-10-08T01:34:24.843Z,3.25
2022-10-08T01:37:34.895Z,3.50
2022-10-08T01:40:42.594Z,4.43
2022-10-08T01:43:54.770Z,3.72
2022-10-08T01:47:04.058Z,3.53
2022-10-08T01:50:13.051Z,3.35
2022-10-08T01:53:25.069Z,3.90
2022-10-08T01:56:34.711Z,3.58
2022-10-08T01:59:46.383Z,3.58
2022-10-08T02:02:53.371Z,3.70
2022-10-08T02:05:58.879Z,3.88
2022-10-08T02:09:06.447Z,3.70
2022-10-08T02:12:15.620Z,3.50
2022-10-08T02:15:28.564Z,3.63
2022-10-08T02:18:37.974Z,5.22
2022-10-08T02:21:44.048Z,4.40
2022-10-08T02:24:54.091Z,4.00
2022-10-08T02:28:06.327Z,3.80
2022-10-08T02:31:22.733Z,4.50
2022-10-08T02:34:31.459Z,3.65
2022-10-08T02:37:40.619Z,3.70
2022-10-08T02:40:57.437Z,3.67
2022-10-08T02:44:11.969Z,2.92
2022-10-08T02:47:28.918Z,3.88
2022-10-08T02:50:49.625Z,3.50
2022-10-08T02:54:15.692Z,3.78
2022-10-08T02:57:24.499Z,4.20
2022-10-08T03:00:34.706Z,3.05
2022-10-08T03:03:46.682Z,4.10
2022-10-08T03:06:53.233Z,3.50
2022-10-08T03:10:14.862Z,4.93
2022-10-08T03:13:46.655Z,3.93
2022-10-08T03:17:18.686Z,3.60
2022-10-08T03:21:05.667Z,3.63
2022-10-08T03:24:24.815Z,3.75
2022-10-08T03:27:56.675Z,3.38
2022-10-08T03:31:21.689Z,4.00
2022-10-08T03:35:02.141Z,3.70
2022-10-08T03:38:25.603Z,3.90
2022-10-08T03:42:11.901Z,3.72
2022-10-08T03:45:24.901Z,3.45
2022-10-08T03:49:00.436Z,3.65
2022-10-08T03:52:14.015Z,4.57
2022-10-08T03:58:52.778Z,3.95
2022-10-08T04:02:10.763Z,4.38
2022-10-08T04:05:29.699Z,3.80
2022-10-08T04:09:07.749Z,4.38
2022-10-08T04:12:42.694Z,3.90
2022-10-08T04:16:09.700Z,3.78
2022-10-08T04:23:12.756Z,3.30
2022-10-08T04:30:19.705Z,3.92
2022-10-08T04:33:57.727Z,4.10
2022-10-08T04:37:14.408Z,3.95
2022-10-08T04:41:02.964Z,4.20
2022-10-08T04:44:21.776Z,3.95
2022-10-08T05:06:23.734Z,4.45
2022-10-08T05:10:11.024Z,4.70
2022-10-08T05:13:41.753Z,4.00
2022-10-08T05:31:35.452Z,4.40
2022-10-08T05:35:01.755Z,4.22
2022-10-08T05:38:27.969Z,4.40
2022-10-08T05:41:42.767Z,4.38
2022-10-08T05:44:55.154Z,4.07
2022-10-08T05:55:18.842Z,4.72
2022-10-08T05:58:30.811Z,4.05
2022-10-08T06:01:40.248Z,4.63
2022-10-08T06:04:48.684Z,4.72
2022-10-08T06:07:57.706Z,4.70
2022-10-08T06:11:06.729Z,4.15
2022-10-08T06:14:13.787Z,4.45
2022-10-08T06:17:20.126Z,3.90
2022-10-08T06:20:31.978Z,4.43
2022-10-08T06:23:37.995Z,4.10
2022-10-08T06:26:45.219Z,5.20
2022-10-08T06:29:50.670Z,3.97
2022-10-08T06:32:55.682Z,4.80
2022-10-08T06:36:08.115Z,4.30
2022-10-08T06:39:18.743Z,3.53
2022-10-08T06:42:26.226Z,4.18
2022-10-08T06:45:43.519Z,4.25
2022-10-08T06:49:03.028Z,4.47
2022-10-08T06:52:13.889Z,4.10
2022-10-08T06:55:22.249Z,5.03
2022-10-08T06:58:27.393Z,4.20
2022-10-08T07:01:35.395Z,4.10
2022-10-08T07:04:40.928Z,4.10
2022-10-08T07:07:49.054Z,4.50
2022-10-08T07:10:54.778Z,3.88
2022-10-08T07:14:02.080Z,4.50
2022-10-08T07:17:07.329Z,4.38
2022-10-08T07:20:12.926Z,4.13
2022-10-08T07:23:26.159Z,4.15
2022-10-08T07:26:34.453Z,3.65
2022-10-08T07:29:39.526Z,4.32
2022-10-08T07:32:47.297Z,3.75
2022-10-08T07:35:52.392Z,4.13
2022-10-08T07:39:03.381Z,4.00
2022-10-08T07:42:08.378Z,4.35
2022-10-08T07:45:22.350Z,3.55
2022-10-08T07:48:30.381Z,3.70
2022-10-08T07:51:41.684Z,3.67
2022-10-08T07:54:49.267Z,3.25
2022-10-08T07:57:54.854Z,3.55
2022-10-08T08:01:03.579Z,3.63
2022-10-08T08:04:10.023Z,4.57
2022-10-08T08:07:15.377Z,3.03
2022-10-08T08:10:26.214Z,4.10
2022-10-08T08:13:37.073Z,4.10
2022-10-08T08:16:44.741Z,3.97
2022-10-08T08:19:50.419Z,3.83
2022-10-08T08:22:58.654Z,2.75
2022-10-08T08:26:07.627Z,3.28
2022-10-08T08:29:14.109Z,2.92
2022-10-08T08:32:28.625Z,3.88
2022-10-08T08:35:34.523Z,3.33
2022-10-08T08:38:40.527Z,3.88
2022-10-08T08:41:55.964Z,3.53
2022-10-08T08:45:02.006Z,3.50
2022-10-08T08:48:10.559Z,3.58
2022-10-08T08:51:16.214Z,3.90
2022-10-08T08:54:23.068Z,4.05
2022-10-08T08:57:42.929Z,3.55
2022-10-08T09:00:54.357Z,4.03
2022-10-08T09:04:02.213Z,3.28
2022-10-08T09:07:10.711Z,3.50
2022-10-08T09:10:19.555Z,4.03
2022-10-08T09:13:31.605Z,3.78
2022-10-08T09:16:40.357Z,3.92
2022-10-08T09:19:46.557Z,3.80
2022-10-08T09:22:52.480Z,3.92
2022-10-08T09:26:00.468Z,3.58
2022-10-08T09:29:07.446Z,3.38
2022-10-08T09:32:20.762Z,3.38
2022-10-08T09:35:28.147Z,3.47
2022-10-08T09:38:41.574Z,3.38
2022-10-08T09:41:50.331Z,3.40
2022-10-08T09:44:59.260Z,3.35
2022-10-08T09:48:22.412Z,4.10
2022-10-08T09:51:30.974Z,3.85
2022-10-08T09:54:39.706Z,3.15
2022-10-08T09:57:49.055Z,2.63
2022-10-08T10:01:02.355Z,3.03
2022-10-08T10:04:20.773Z,3.15
2022-10-08T10:07:26.307Z,3.15
2022-10-08T10:10:42.361Z,3.40
2022-10-08T10:16:59.505Z,3.28
2022-10-08T10:20:09.281Z,2.75
2022-10-08T10:23:15.997Z,3.33
2022-10-08T10:26:23.366Z,2.95
2022-10-08T10:29:35.666Z,2.90
2022-10-08T10:32:43.195Z,3.45
2022-10-08T10:35:54.084Z,3.55
2022-10-08T10:39:09.295Z,3.60
2022-10-08T10:42:19.325Z,3.42
2022-10-08T10:45:27.078Z,2.85
2022-10-08T10:48:38.978Z,2.75
2022-10-08T10:51:55.917Z,2.42
2022-10-08T10:55:17.618Z,3.35
2022-10-08T10:58:33.160Z,3.47
2022-10-08T11:01:43.140Z,2.80
2022-10-08T11:04:59.388Z,4.05
2022-10-08T11:08:19.023Z,3.00
2022-10-08T11:11:32.235Z,4.20
2022-10-08T11:14:43.185Z,3.40
2022-10-08T11:17:55.915Z,2.38
2022-10-08T11:21:05.800Z,3.88
2022-10-08T11:24:20.478Z,3.20
2022-10-08T11:27:31.310Z,3.63
2022-10-08T11:30:44.009Z,3.10
2022-10-08T11:33:49.903Z,4.18
2022-10-08T11:37:03.962Z,2.50
2022-10-08T11:40:19.218Z,2.38
2022-10-08T11:43:37.335Z,2.17
2022-10-08T11:46:43.476Z,2.30
2022-10-08T11:49:56.727Z,2.20
2022-10-08T11:53:22.311Z,1.98
2022-10-08T11:56:33.283Z,2.22
2022-10-08T11:59:39.746Z,2.55
2022-10-08T12:02:55.721Z,2.30
2022-10-08T12:06:04.960Z,2.38
2022-10-08T12:09:15.102Z,2.63
2022-10-08T12:12:25.164Z,2.63
2022-10-08T12:15:45.623Z,2.35
2022-10-08T12:18:51.266Z,2.30
2022-10-08T12:22:01.793Z,2.38
2022-10-08T12:25:27.905Z,2.17
2022-10-08T12:28:50.982Z,2.10
2022-10-08T12:32:07.064Z,2.22
2022-10-08T12:35:23.441Z,2.30
2022-10-08T12:38:38.011Z,1.80
2022-10-08T12:41:48.250Z,2.30
2022-10-08T12:45:01.319Z,2.20
2022-10-08T12:48:17.366Z,1.90
2022-10-08T12:51:30.662Z,2.60
2022-10-08T12:54:36.449Z,2.20
2022-10-08T12:57:43.792Z,2.15
2022-10-08T13:00:52.762Z,2.25
2022-10-08T13:04:23.502Z,2.03
2022-10-08T13:07:32.870Z,2.05
2022-10-08T13:10:40.613Z,1.80
2022-10-08T13:13:53.361Z,2.50
2022-10-08T13:17:05.773Z,2.45
2022-10-08T13:20:16.001Z,2.25
2022-10-08T13:23:28.391Z,2.03
2022-10-08T13:26:40.914Z,2.00
2022-10-08T13:29:46.523Z,2.50
2022-10-08T13:33:05.709Z,2.00
2022-10-08T13:36:22.953Z,1.90
2022-10-08T13:39:29.605Z,1.92
2022-10-08T13:42:37.878Z,2.25
2022-10-08T13:45:45.371Z,2.22
2022-10-08T13:48:59.462Z,2.88
2022-10-08T13:52:08.929Z,2.75
2022-10-08T13:55:21.011Z,2.33
2022-10-08T13:58:31.294Z,2.33
2022-10-08T14:01:44.977Z,2.47
2022-10-08T14:04:54.315Z,2.65
2022-10-08T14:08:06.832Z,2.35
2022-10-08T14:11:28.380Z,2.45
2022-10-08T14:14:35.757Z,2.40
2022-10-08T14:17:43.084Z,3.15
2022-10-08T14:20:49.067Z,2.40
2022-10-08T14:24:00.606Z,2.20
2022-10-08T14:27:08.381Z,2.72
2022-10-08T14:30:14.670Z,2.28
2022-10-08T14:33:20.403Z,3.00
2022-10-08T14:36:27.131Z,2.33
2022-10-08T14:39:35.274Z,2.47
2022-10-08T14:42:43.860Z,2.33
2022-10-08T14:45:52.717Z,2.75
2022-10-08T14:48:57.996Z,2.60
2022-10-08T14:52:07.634Z,3.08
2022-10-08T14:55:17.109Z,2.47
2022-10-08T14:58:31.417Z,2.72
2022-10-08T15:01:37.149Z,2.78
2022-10-08T15:04:46.959Z,2.40
2022-10-08T15:07:52.152Z,2.83
2022-10-08T15:11:00.992Z,2.97
2022-10-08T15:14:06.522Z,3.22
2022-10-08T15:17:14.653Z,2.65
2022-10-08T15:20:20.983Z,2.78
2022-10-08T15:23:29.675Z,3.55
2022-10-08T15:26:40.048Z,2.35
2022-10-08T15:29:46.093Z,2.40
2022-10-08T15:32:52.735Z,2.85
2022-10-08T15:35:58.290Z,2.67
2022-10-08T15:39:04.374Z,2.28
2022-10-08T15:42:13.815Z,2.35
2022-10-08T15:45:19.042Z,2.72
2022-10-08T15:48:28.181Z,1.58
2022-10-08T15:51:36.242Z,1.95
2022-10-08T15:54:44.495Z,1.40
2022-10-08T15:57:53.299Z,1.50
2022-10-08T16:01:01.497Z,1.70
2022-10-08T16:04:11.928Z,1.92
2022-10-08T16:07:19.752Z,1.60
2022-10-08T16:10:39.689Z,1.52
2022-10-08T16:13:56.600Z,2.10
2022-10-08T16:17:03.303Z,1.63
2022-10-08T16:20:12.019Z,1.67
2022-10-08T16:23:17.768Z,1.80
2022-10-08T16:26:24.013Z,1.58
2022-10-08T16:29:40.290Z,1.88
2022-10-08T16:32:46.297Z,2.58
2022-10-08T16:35:51.670Z,1.92
2022-10-08T16:38:57.198Z,1.80
2022-10-08T16:42:02.178Z,2.10
2022-10-08T16:45:12.835Z,1.73
2022-10-08T16:48:22.022Z,1.90
2022-10-08T16:51:29.886Z,1.55
2022-10-08T16:54:35.299Z,1.80
2022-10-08T16:57:41.091Z,1.65
2022-10-08T17:00:50.303Z,1.83
2022-10-08T17:03:56.433Z,1.70
2022-10-08T17:07:03.714Z,2.60
2022-10-08T17:10:09.960Z,2.38
2022-10-08T17:13:17.194Z,2.50
2022-10-08T17:16:29.788Z,2.58
2022-10-08T17:19:37.909Z,2.78
2022-10-08T17:22:44.394Z,2.25
2022-10-08T17:25:49.476Z,3.03
2022-10-08T17:28:54.954Z,2.42
2022-10-08T17:32:02.967Z,2.65
2022-10-08T17:35:11.497Z,2.28
2022-10-08T17:38:17.620Z,2.78
2022-10-08T17:41:29.482Z,3.05
2022-10-08T17:44:34.506Z,3.58
2022-10-08T17:47:39.899Z,2.22
2022-10-08T17:50:49.906Z,2.47
2022-10-08T17:53:56.461Z,2.10
2022-10-08T17:57:01.598Z,2.13
2022-10-08T18:00:07.346Z,3.30
2022-10-08T18:03:12.459Z,3.88
2022-10-08T18:06:21.311Z,4.38
2022-10-08T18:09:28.747Z,4.50
2022-10-08T18:12:34.103Z,5.15
2022-10-08T18:15:39.714Z,4.88
2022-10-08T18:18:45.532Z,5.63
2022-10-08T18:21:53.202Z,4.72
2022-10-08T18:24:58.913Z,2.80
2022-10-08T18:28:06.053Z,3.08
2022-10-08T18:31:12.396Z,3.13
2022-10-08T18:34:19.127Z,2.90
2022-10-08T18:37:29.333Z,2.72
2022-10-08T18:40:34.370Z,2.40
2022-10-08T18:43:39.719Z,2.40
2022-10-08T18:46:45.287Z,2.28
2022-10-08T18:49:50.674Z,2.60
2022-10-08T18:52:58.163Z,1.98
2022-10-08T18:56:06.111Z,2.33
2022-10-08T18:59:11.655Z,2.70
2022-10-08T19:02:19.575Z,1.85
2022-10-08T19:05:27.366Z,2.53
2022-10-08T19:08:43.764Z,2.28
2022-10-08T19:11:51.830Z,2.53
2022-10-08T19:14:57.145Z,2.78
2022-10-08T19:18:02.046Z,2.35
2022-10-08T19:21:11.055Z,2.38
2022-10-08T19:24:19.197Z,1.98
2022-10-08T19:27:24.907Z,1.52
2022-10-08T19:30:33.045Z,2.05
2022-10-08T19:33:40.194Z,2.00
2022-10-08T19:36:46.142Z,2.92
2022-10-08T19:39:54.054Z,2.08
2022-10-08T19:42:58.999Z,2.25
2022-10-08T19:46:04.617Z,2.28
2022-10-08T19:49:11.037Z,1.98
2022-10-08T19:52:16.302Z,2.00
2022-10-08T19:55:26.022Z,2.88
2022-10-08T19:58:32.257Z,4.13
2022-10-08T20:01:40.079Z,4.60
2022-10-08T20:04:46.211Z,4.63
2022-10-08T20:07:51.712Z,4.53
2022-10-08T20:11:02.021Z,4.97
2022-10-08T20:14:09.930Z,5.53
2022-10-08T20:17:17.457Z,5.68
2022-10-08T20:20:32.769Z,4.35
2022-10-08T20:23:39.229Z,4.15
2022-10-08T20:26:48.462Z,3.97
2022-10-08T20:29:53.684Z,3.35
2022-10-08T20:32:58.720Z,2.80
2022-10-08T20:36:03.977Z,2.40
2022-10-08T20:39:09.413Z,2.00
2022-10-08T20:42:18.440Z,2.80
2022-10-08T20:45:27.307Z,2.47
2022-10-08T20:48:34.118Z,1.98
2022-10-08T20:51:40.898Z,1.85
2022-10-08T20:54:48.864Z,2.20
2022-10-08T20:57:56.347Z,2.03
2022-10-08T21:01:07.452Z,2.28
2022-10-08T21:04:14.772Z,2.40
2022-10-08T21:07:19.983Z,3.00
2022-10-08T21:10:25.514Z,2.40
2022-10-08T21:13:33.650Z,1.85
2022-10-08T21:16:39.875Z,1.73
2022-10-08T21:19:45.473Z,1.83
2022-10-08T21:22:50.708Z,2.55
2022-10-08T21:25:56.142Z,2.53
2022-10-08T21:29:04.240Z,1.90
2022-10-08T21:32:09.474Z,1.73
2022-10-08T21:35:16.762Z,2.13
2022-10-08T21:38:23.265Z,1.60
2022-10-08T21:41:28.873Z,2.20
2022-10-08T21:44:36.800Z,1.75
2022-10-08T21:47:41.717Z,1.75
2022-10-08T21:50:46.902Z,1.75
2022-10-08T21:53:53.191Z,1.52
2022-10-08T21:56:58.917Z,1.75
2022-10-08T22:00:07.809Z,2.58
2022-10-08T22:03:13.056Z,2.28
2022-10-08T22:06:19.094Z,1.73
2022-10-08T22:09:27.899Z,2.20
2022-10-08T22:12:33.044Z,1.73
2022-10-08T22:15:41.027Z,1.90
2022-10-08T22:18:46.087Z,1.63
2022-10-08T22:21:52.388Z,1.90
2022-10-08T22:24:57.332Z,1.92
2022-10-08T22:28:02.553Z,1.60
2022-10-08T22:31:10.948Z,2.00
2022-10-08T22:34:16.202Z,2.15
2022-10-08T22:37:21.280Z,1.70
2022-10-08T22:40:26.518Z,2.10
2022-10-08T22:43:31.398Z,1.75
2022-10-08T22:46:42.387Z,1.85
2022-10-08T22:49:47.302Z,1.85
2022-10-08T22:52:53.041Z,1.63
2022-10-08T22:55:57.942Z,1.88
2022-10-08T22:59:03.216Z,1.50
2022-10-08T23:02:10.808Z,1.60
2022-10-08T23:05:16.900Z,1.67
2022-10-08T23:08:21.766Z,1.90
2022-10-08T23:11:27.135Z,1.92
2022-10-08T23:14:32.033Z,1.75
2022-10-08T23:17:40.045Z,1.45
2022-10-08T23:20:44.889Z,1.02
2022-10-08T23:23:50.480Z,1.38
2022-10-08T23:26:55.357Z,1.30
2022-10-08T23:30:01.832Z,1.63
2022-10-08T23:33:09.827Z,1.50
2022-10-08T23:36:15.902Z,1.42
2022-10-08T23:39:21.875Z,1.65
2022-10-08T23:42:30.007Z,1.50
2022-10-08T23:45:34.961Z,1.50
2022-10-08T23:48:43.053Z,1.75
2022-10-08T23:51:48.094Z,1.58
2022-10-08T23:54:53.386Z,1.67
2022-10-08T23:57:58.293Z,2.20
